createdAt,value
2022-11-12T00:00:53.795Z,4.95
2022-11-12T00:03:21.245Z,4.91
2022-11-12T00:05:49.604Z,4.91
2022-11-12T00:08:16.780Z,4.90
2022-11-12T00:10:43.986Z,4.90
2022-11-12T00:13:11.178Z,4.84
2022-11-12T00:15:37.693Z,4.82
2022-11-12T00:18:04.368Z,4.80
2022-11-12T00:20:31.034Z,4.79
2022-11-12T00:22:57.541Z,4.79
2022-11-12T00:25:24.153Z,4.77
2022-11-12T00:27:50.638Z,4.71
2022-11-12T00:30:17.197Z,4.64
2022-11-12T00:32:43.715Z,4.61
2022-11-12T00:35:13.658Z,4.57
2022-11-12T00:37:41.028Z,4.53
2022-11-12T00:40:08.539Z,4.49
2022-11-12T00:42:35.073Z,4.45
2022-11-12T00:45:01.783Z,4.42
2022-11-12T00:47:28.242Z,4.43
2022-11-12T00:49:54.787Z,4.42
2022-11-12T00:52:21.269Z,4.41
2022-11-12T00:54:47.687Z,4.40
2022-11-12T00:57:14.226Z,4.40
2022-11-12T00:59:40.680Z,4.41
2022-11-12T01:02:07.200Z,4.38
2022-11-12T01:04:33.967Z,4.35
2022-11-12T01:07:00.607Z,4.33
2022-11-12T01:09:27.240Z,4.30
2022-11-12T01:11:53.717Z,4.31
2022-11-12T01:14:20.231Z,4.32
2022-11-12T01:16:46.731Z,4.32
2022-11-12T01:19:13.804Z,4.28
2022-11-12T01:21:43.291Z,4.27
2022-11-12T01:24:10.342Z,4.24
2022-11-12T01:26:37.626Z,4.23
2022-11-12T01:29:04.628Z,4.22
2022-11-12T01:31:36.801Z,4.19
2022-11-12T01:34:07.369Z,4.21
2022-11-12T01:36:39.326Z,4.19
2022-11-12T01:39:07.800Z,4.18
2022-11-12T01:41:37.455Z,4.18
2022-11-12T01:44:06.722Z,4.20
2022-11-12T01:46:34.977Z,4.17
2022-11-12T01:49:04.743Z,4.18
2022-11-12T01:51:37.489Z,4.16
2022-11-12T01:54:09.206Z,4.15
2022-11-12T01:56:39.484Z,4.14
2022-11-12T01:59:14.865Z,4.14
2022-11-12T02:01:41.383Z,4.15
2022-11-12T02:04:07.887Z,4.14
2022-11-12T02:06:36.618Z,4.16
2022-11-12T02:09:03.244Z,4.14
2022-11-12T02:11:29.689Z,4.13
2022-11-12T02:13:58.773Z,4.13
2022-11-12T02:16:32.788Z,4.12
2022-11-12T02:18:59.841Z,4.13
2022-11-12T02:21:27.595Z,4.10
2022-11-12T02:24:04.213Z,4.08
2022-11-12T02:26:37.008Z,4.08
2022-11-12T02:29:04.023Z,4.06
2022-11-12T02:31:31.017Z,4.03
2022-11-12T02:33:57.520Z,4.01
2022-11-12T02:36:24.672Z,3.98
2022-11-12T02:38:51.679Z,3.99
2022-11-12T02:41:18.235Z,3.98
2022-11-12T02:43:44.717Z,3.98
2022-11-12T02:46:11.870Z,3.94
2022-11-12T02:48:38.460Z,3.94
2022-11-12T02:51:05.776Z,3.92
2022-11-12T02:53:32.605Z,3.91
2022-11-12T02:56:00.321Z,3.89
2022-11-12T02:58:27.774Z,3.86
2022-11-12T03:00:56.380Z,3.85
2022-11-12T03:03:23.504Z,3.80
2022-11-12T03:05:57.909Z,3.79
2022-11-12T03:08:25.733Z,3.76
2022-11-12T03:10:52.989Z,3.75
2022-11-12T03:13:20.826Z,3.74
2022-11-12T03:15:47.400Z,3.72
2022-11-12T03:18:13.858Z,3.68
2022-11-12T03:20:40.403Z,3.69
2022-11-12T03:23:09.700Z,3.68
2022-11-12T03:25:36.777Z,3.69
2022-11-12T03:28:12.350Z,3.69
2022-11-12T03:30:41.045Z,3.68
2022-11-12T03:33:08.223Z,3.67
2022-11-12T03:35:35.411Z,3.69
2022-11-12T03:38:02.806Z,3.68
2022-11-12T03:40:30.025Z,3.65
2022-11-12T03:42:56.618Z,3.63
2022-11-12T03:45:25.253Z,3.61
2022-11-12T03:47:54.602Z,3.61
2022-11-12T03:50:24.147Z,3.58
2022-11-12T03:52:53.436Z,3.56
2022-11-12T03:55:22.129Z,3.53
2022-11-12T03:57:49.231Z,3.49
2022-11-12T04:00:16.481Z,3.45
2022-11-12T04:02:43.135Z,3.42
2022-11-12T04:05:42.399Z,3.41
2022-11-12T04:08:37.609Z,3.41
2022-11-12T04:11:09.111Z,3.38
2022-11-12T04:13:38.615Z,3.33
2022-11-12T04:16:29.481Z,3.32
2022-11-12T04:19:16.724Z,3.32
2022-11-12T04:21:51.977Z,3.33
2022-11-12T04:24:42.560Z,3.33
2022-11-12T04:27:15.604Z,3.33
2022-11-12T04:30:01.989Z,3.32
2022-11-12T04:32:29.580Z,3.28
2022-11-12T04:34:56.438Z,3.22
2022-11-12T04:37:25.141Z,3.20
2022-11-12T04:39:51.977Z,3.20
2022-11-12T04:42:37.468Z,3.22
2022-11-12T04:45:08.122Z,3.22
2022-11-12T04:47:40.095Z,3.21
2022-11-12T04:50:17.792Z,3.18
2022-11-12T04:52:44.740Z,3.17
2022-11-12T04:55:11.472Z,3.15
2022-11-12T04:57:38.420Z,3.13
2022-11-12T05:00:05.933Z,3.13
2022-11-12T05:02:32.456Z,3.14
2022-11-12T05:04:58.894Z,3.14
2022-11-12T05:07:25.380Z,3.13
2022-11-12T05:09:51.838Z,3.12
2022-11-12T05:12:18.341Z,3.12
2022-11-12T05:14:44.747Z,3.07
2022-11-12T05:17:11.202Z,3.04
2022-11-12T05:19:37.764Z,3.02
2022-11-12T05:22:08.857Z,2.96
2022-11-12T05:24:43.248Z,2.89
2022-11-12T05:27:15.718Z,2.83
2022-11-12T05:29:42.513Z,2.83
2022-11-12T05:32:12.270Z,2.81
2022-11-12T05:34:38.990Z,2.83
2022-11-12T05:37:07.192Z,2.79
2022-11-12T05:39:33.700Z,2.78
2022-11-12T05:42:15.608Z,2.75
2022-11-12T05:44:42.210Z,2.76
2022-11-12T05:47:08.729Z,2.73
2022-11-12T05:49:35.220Z,2.75
2022-11-12T05:52:01.738Z,2.74
2022-11-12T05:54:28.357Z,2.75
2022-11-12T05:56:54.889Z,2.76
2022-11-12T05:59:22.271Z,2.77
2022-11-12T06:01:48.794Z,2.77
2022-11-12T06:04:16.367Z,2.78
2022-11-12T06:06:43.784Z,2.78
2022-11-12T06:09:11.111Z,2.79
2022-11-12T06:11:38.211Z,2.75
2022-11-12T06:14:05.577Z,2.72
2022-11-12T06:16:32.444Z,2.72
2022-11-12T06:18:59.343Z,2.72
2022-11-12T06:21:27.797Z,2.72
2022-11-12T06:23:59.254Z,2.71
2022-11-12T06:26:28.463Z,2.71
2022-11-12T06:28:55.445Z,2.71
2022-11-12T06:31:22.705Z,2.73
2022-11-12T06:33:49.263Z,2.71
2022-11-12T06:36:18.830Z,2.72
2022-11-12T06:38:45.483Z,2.71
2022-11-12T06:41:13.411Z,2.72
2022-11-12T06:43:40.646Z,2.69
2022-11-12T06:46:13.318Z,2.68
2022-11-12T06:48:40.066Z,2.67
2022-11-12T06:51:12.671Z,2.67
2022-11-12T06:53:39.220Z,2.67
2022-11-12T06:56:07.273Z,2.65
2022-11-12T06:58:34.653Z,2.65
2022-11-12T07:01:12.166Z,2.64
2022-11-12T07:03:40.164Z,2.64
2022-11-12T07:06:12.279Z,2.68
2022-11-12T07:08:39.652Z,2.71
2022-11-12T07:11:06.913Z,2.72
2022-11-12T07:13:34.796Z,2.72
2022-11-12T07:16:02.122Z,2.71
2022-11-12T07:18:29.296Z,2.72
2022-11-12T07:21:04.785Z,2.74
2022-11-12T07:23:33.146Z,2.77
2022-11-12T07:26:08.759Z,2.80
2022-11-12T07:28:35.262Z,2.83
2022-11-12T07:31:06.931Z,2.84
2022-11-12T07:33:34.561Z,2.85
2022-11-12T07:36:06.728Z,2.85
2022-11-12T07:38:35.520Z,2.87
2022-11-12T07:41:02.285Z,2.87
2022-11-12T07:43:31.370Z,2.90
2022-11-12T07:46:00.183Z,2.96
2022-11-12T07:48:27.576Z,2.97
2022-11-12T07:51:00.874Z,2.99
2022-11-12T07:53:27.723Z,3.02
2022-11-12T07:55:59.403Z,3.03
2022-11-12T07:58:27.693Z,3.07
2022-11-12T08:00:54.333Z,3.09
2022-11-12T08:03:21.209Z,3.13
2022-11-12T08:05:48.008Z,3.14
2022-11-12T08:08:14.564Z,3.18
2022-11-12T08:10:41.031Z,3.18
2022-11-12T08:13:07.623Z,3.18
2022-11-12T08:15:34.097Z,3.20
2022-11-12T08:18:00.605Z,3.22
2022-11-12T08:20:27.152Z,3.27
2022-11-12T08:22:54.419Z,3.34
2022-11-12T08:25:20.808Z,3.41
2022-11-12T08:27:47.304Z,3.47
2022-11-12T08:30:14.190Z,3.52
2022-11-12T08:32:40.708Z,3.55
2022-11-12T08:35:07.702Z,3.61
2022-11-12T08:37:34.171Z,3.68
2022-11-12T08:40:00.684Z,3.74
2022-11-12T08:42:27.076Z,3.78
2022-11-12T08:44:53.665Z,3.83
2022-11-12T08:47:20.140Z,3.92
2022-11-12T08:49:48.174Z,3.97
2022-11-12T08:52:14.880Z,4.02
2022-11-12T08:54:41.381Z,4.08
2022-11-12T08:57:07.883Z,4.15
2022-11-12T08:59:34.399Z,4.22
2022-11-12T09:02:00.999Z,4.30
2022-11-12T09:04:27.719Z,4.41
2022-11-12T09:06:54.549Z,4.49
2022-11-12T09:09:21.206Z,4.60
2022-11-12T09:11:47.622Z,4.70
2022-11-12T09:14:14.304Z,4.78
2022-11-12T09:16:40.807Z,4.85
2022-11-12T09:19:07.417Z,4.95
2022-11-12T09:21:33.983Z,5.00
2022-11-12T09:24:00.503Z,5.10
2022-11-12T09:26:26.980Z,5.20
2022-11-12T09:28:54.933Z,5.26
2022-11-12T09:31:21.463Z,5.36
2022-11-12T09:33:48.018Z,5.47
2022-11-12T09:36:14.502Z,5.54
2022-11-12T09:38:41.268Z,5.63
2022-11-12T09:41:16.966Z,5.72
2022-11-12T09:43:46.220Z,5.80
2022-11-12T09:46:29.621Z,5.89
2022-11-12T09:49:12.565Z,5.96
2022-11-12T09:51:49.737Z,6.07
2022-11-12T09:54:27.159Z,6.21
2022-11-12T09:56:54.486Z,6.31
2022-11-12T09:59:22.770Z,6.37
2022-11-12T10:01:53.701Z,6.45
2022-11-12T10:04:52.827Z,6.48
2022-11-12T10:07:43.556Z,6.59
2022-11-12T10:10:24.623Z,6.67
2022-11-12T10:13:06.472Z,6.78
2022-11-12T10:16:13.517Z,6.87
2022-11-12T10:19:12.966Z,6.94
2022-11-12T10:21:50.224Z,7.02
2022-11-12T10:24:16.726Z,7.10
2022-11-12T10:26:43.610Z,7.23
2022-11-12T10:29:37.521Z,7.35
2022-11-12T10:32:04.222Z,7.42
2022-11-12T10:34:34.203Z,7.49
2022-11-12T10:37:05.946Z,7.68
2022-11-12T10:39:38.089Z,7.78
2022-11-12T10:42:05.967Z,7.89
2022-11-12T10:44:32.491Z,7.98
2022-11-12T10:47:33.108Z,8.08
2022-11-12T10:50:02.536Z,8.18
2022-11-12T10:52:29.263Z,8.23
2022-11-12T10:55:18.912Z,8.32
2022-11-12T10:57:45.618Z,8.44
2022-11-12T11:00:16.646Z,8.48
2022-11-12T11:02:52.843Z,8.58
2022-11-12T11:05:41.434Z,8.65
2022-11-12T11:08:10.738Z,8.65
2022-11-12T11:10:37.488Z,8.69
2022-11-12T11:13:27.016Z,8.77
2022-11-12T11:16:06.486Z,8.80
2022-11-12T11:18:36.011Z,8.92
2022-11-12T11:21:05.581Z,9.06
2022-11-12T11:23:57.229Z,9.15
2022-11-12T11:26:29.795Z,9.26
2022-11-12T11:29:07.850Z,9.35
2022-11-12T11:31:48.975Z,9.43
2022-11-12T11:34:24.614Z,9.57
2022-11-12T11:37:26.897Z,9.65
2022-11-12T11:40:31.058Z,9.76
2022-11-12T11:43:18.422Z,9.86
2022-11-12T11:46:06.767Z,9.97
2022-11-12T11:48:47.358Z,10.02
2022-11-12T11:51:29.085Z,10.11
2022-11-12T11:54:10.508Z,10.25
2022-11-12T11:56:41.736Z,10.33
2022-11-12T11:59:20.466Z,10.35
2022-11-12T12:01:50.171Z,10.39
2022-11-12T12:04:44.883Z,10.44
2022-11-12T12:07:45.708Z,10.56
2022-11-12T12:10:12.104Z,10.66
2022-11-12T12:13:02.167Z,10.68
2022-11-12T12:15:50.408Z,10.78
2022-11-12T12:18:22.770Z,10.88
2022-11-12T12:21:01.237Z,10.96
2022-11-12T12:23:36.412Z,11.00
2022-11-12T12:26:10.018Z,11.08
2022-11-12T12:28:51.195Z,11.18
2022-11-12T12:31:23.476Z,11.32
2022-11-12T12:34:03.357Z,11.46
2022-11-12T12:36:41.852Z,11.51
2022-11-12T12:39:25.146Z,11.56
2022-11-12T12:42:01.385Z,11.59
2022-11-12T12:44:56.140Z,11.64
2022-11-12T12:47:22.810Z,11.67
2022-11-12T12:49:50.947Z,11.73
2022-11-12T12:52:17.470Z,11.82
2022-11-12T12:54:53.022Z,11.84
2022-11-12T12:57:32.971Z,11.86
2022-11-12T13:00:31.958Z,11.88
2022-11-12T13:02:58.909Z,11.99
2022-11-12T13:05:34.530Z,12.03
2022-11-12T13:08:09.432Z,12.00
2022-11-12T13:10:38.855Z,11.97
2022-11-12T13:13:08.513Z,11.97
2022-11-12T13:15:46.977Z,12.06
2022-11-12T13:18:51.721Z,12.15
2022-11-12T13:21:20.369Z,12.21
2022-11-12T13:24:06.757Z,12.27
2022-11-12T13:26:39.351Z,12.29
2022-11-12T13:29:25.169Z,12.35
2022-11-12T13:32:25.805Z,12.36
2022-11-12T13:35:10.053Z,12.43
2022-11-12T13:37:43.933Z,12.41
2022-11-12T13:40:16.591Z,12.37
2022-11-12T13:42:49.730Z,12.23
2022-11-12T13:45:18.597Z,12.19
2022-11-12T13:47:45.632Z,12.23
2022-11-12T13:50:17.652Z,12.28
2022-11-12T13:52:45.101Z,12.30
2022-11-12T13:55:21.274Z,12.33
2022-11-12T13:57:55.465Z,12.35
2022-11-12T14:00:26.596Z,12.34
2022-11-12T14:03:06.130Z,12.33
2022-11-12T14:05:34.910Z,12.37
2022-11-12T14:08:05.840Z,12.36
2022-11-12T14:10:41.068Z,12.36
2022-11-12T14:13:38.719Z,12.30
2022-11-12T14:16:11.793Z,12.26
2022-11-12T14:18:47.605Z,12.23
2022-11-12T14:21:18.012Z,12.17
2022-11-12T14:23:47.559Z,12.12
2022-11-12T14:26:34.605Z,12.06
2022-11-12T14:29:01.482Z,12.04
2022-11-12T14:31:28.103Z,11.99
2022-11-12T14:33:54.813Z,11.94
2022-11-12T14:36:22.424Z,11.89
2022-11-12T14:38:55.353Z,11.81
2022-11-12T14:41:31.530Z,11.77
2022-11-12T14:44:12.650Z,11.71
2022-11-12T14:46:46.114Z,11.67
2022-11-12T14:49:19.888Z,11.62
2022-11-12T14:51:50.383Z,11.54
2022-11-12T14:54:25.394Z,11.47
2022-11-12T14:56:52.406Z,11.40
2022-11-12T14:59:19.078Z,11.34
2022-11-12T15:02:49.917Z,11.29
2022-11-12T15:05:20.932Z,11.17
2022-11-12T15:08:13.812Z,11.09
2022-11-12T15:10:43.139Z,11.02
2022-11-12T15:13:13.407Z,10.94
2022-11-12T15:15:51.188Z,10.81
2022-11-12T15:18:21.060Z,10.74
2022-11-12T15:21:10.650Z,10.69
2022-11-12T15:23:45.783Z,10.67
2022-11-12T15:26:23.074Z,10.67
2022-11-12T15:29:23.395Z,10.62
2022-11-12T15:31:51.047Z,10.58
2022-11-12T15:34:40.125Z,10.50
2022-11-12T15:37:21.129Z,10.43
2022-11-12T15:39:55.003Z,10.38
2022-11-12T15:42:33.826Z,10.30
2022-11-12T15:45:03.331Z,10.21
2022-11-12T15:47:30.517Z,10.17
2022-11-12T15:49:59.161Z,10.09
2022-11-12T15:52:26.114Z,10.01
2022-11-12T15:54:53.162Z,9.95
2022-11-12T15:57:28.311Z,9.91
2022-11-12T16:00:07.613Z,9.86
2022-11-12T16:02:34.915Z,9.82
2022-11-12T16:05:01.529Z,9.81
2022-11-12T16:07:28.017Z,9.81
2022-11-12T16:09:54.481Z,9.79
2022-11-12T16:12:21.476Z,9.74
2022-11-12T16:14:48.021Z,9.70
2022-11-12T16:17:18.439Z,9.66
2022-11-12T16:19:44.988Z,9.61
2022-11-12T16:22:14.259Z,9.57
2022-11-12T16:24:42.160Z,9.53
2022-11-12T16:27:13.932Z,9.48
2022-11-12T16:29:40.903Z,9.43
2022-11-12T16:32:14.317Z,9.40
2022-11-12T16:34:40.801Z,9.37
2022-11-12T16:37:12.383Z,9.33
2022-11-12T16:39:38.907Z,9.30
2022-11-12T16:42:05.587Z,9.27
2022-11-12T16:44:32.065Z,9.23
2022-11-12T16:46:58.621Z,9.21
2022-11-12T16:49:26.158Z,9.20
2022-11-12T16:51:52.692Z,9.14
2022-11-12T16:54:19.194Z,9.09
2022-11-12T16:56:45.627Z,9.05
2022-11-12T16:59:14.316Z,9.03
2022-11-12T17:01:40.767Z,8.99
2022-11-12T17:04:07.315Z,8.94
2022-11-12T17:06:37.159Z,8.91
2022-11-12T17:09:08.722Z,8.86
2022-11-12T17:11:35.659Z,8.83
2022-11-12T17:14:03.081Z,8.81
2022-11-12T17:16:30.141Z,8.78
2022-11-12T17:18:57.997Z,8.72
2022-11-12T17:21:25.280Z,8.69
2022-11-12T17:23:51.843Z,8.68
2022-11-12T17:26:20.194Z,8.63
2022-11-12T17:28:48.474Z,8.60
2022-11-12T17:31:14.919Z,8.56
2022-11-12T17:33:46.551Z,8.52
2022-11-12T17:36:15.374Z,8.48
2022-11-12T17:38:42.010Z,8.43
2022-11-12T17:41:10.049Z,8.41
2022-11-12T17:43:37.408Z,8.37
2022-11-12T17:46:06.662Z,8.36
2022-11-12T17:48:34.909Z,8.30
2022-11-12T17:51:06.366Z,8.27
2022-11-12T17:53:33.066Z,8.23
2022-11-12T17:55:59.892Z,8.17
2022-11-12T17:58:26.346Z,8.16
2022-11-12T18:00:53.025Z,8.14
2022-11-12T18:03:20.332Z,8.12
2022-11-12T18:05:56.670Z,8.12
2022-11-12T18:08:23.164Z,8.08
2022-11-12T18:10:49.642Z,8.05
2022-11-12T18:13:16.227Z,8.01
2022-11-12T18:15:42.642Z,7.97
2022-11-12T18:18:09.160Z,7.93
2022-11-12T18:20:36.825Z,7.91
2022-11-12T18:23:03.647Z,7.90
2022-11-12T18:25:30.165Z,7.88
2022-11-12T18:27:56.683Z,7.83
2022-11-12T18:30:23.238Z,7.79
2022-11-12T18:32:49.695Z,7.75
2022-11-12T18:35:16.403Z,7.72
2022-11-12T18:37:42.850Z,7.70
2022-11-12T18:40:09.718Z,7.68
2022-11-12T18:42:36.221Z,7.66
2022-11-12T18:45:02.723Z,7.62
2022-11-12T18:47:30.279Z,7.57
2022-11-12T18:49:56.770Z,7.55
2022-11-12T18:52:23.236Z,7.53
2022-11-12T18:54:49.724Z,7.48
2022-11-12T18:57:16.235Z,7.45
2022-11-12T18:59:42.815Z,7.45
2022-11-12T19:02:11.199Z,7.45
2022-11-12T19:04:43.992Z,7.42
2022-11-12T19:07:11.981Z,7.36
2022-11-12T19:09:38.592Z,7.35
2022-11-12T19:12:05.515Z,7.32
2022-11-12T19:14:32.132Z,7.30
2022-11-12T19:16:58.642Z,7.26
2022-11-12T19:19:25.297Z,7.24
2022-11-12T19:21:51.838Z,7.22
2022-11-12T19:24:18.398Z,7.17
2022-11-12T19:26:44.882Z,7.16
2022-11-12T19:29:11.380Z,7.13
2022-11-12T19:31:37.876Z,7.06
2022-11-12T19:34:04.441Z,7.03
2022-11-12T19:36:31.726Z,6.96
2022-11-12T19:39:02.355Z,6.97
2022-11-12T19:41:30.887Z,6.98
2022-11-12T19:43:57.325Z,6.98
2022-11-12T19:46:25.261Z,6.95
2022-11-12T19:48:51.878Z,6.94
2022-11-12T19:51:18.473Z,6.87
2022-11-12T19:53:45.067Z,6.84
2022-11-12T19:56:13.628Z,6.83
2022-11-12T19:58:44.007Z,6.78
2022-11-12T20:01:13.418Z,6.77
2022-11-12T20:03:40.618Z,6.74
2022-11-12T20:06:12.695Z,6.72
2022-11-12T20:08:39.498Z,6.69
2022-11-12T20:11:06.432Z,6.66
2022-11-12T20:13:33.058Z,6.64
2022-11-12T20:15:59.512Z,6.64
2022-11-12T20:18:26.589Z,6.62
2022-11-12T20:20:55.783Z,6.61
2022-11-12T20:23:26.904Z,6.60
2022-11-12T20:25:53.701Z,6.57
2022-11-12T20:28:20.302Z,6.54
2022-11-12T20:30:46.869Z,6.51
2022-11-12T20:33:13.986Z,6.47
2022-11-12T20:35:40.465Z,6.44
2022-11-12T20:38:06.951Z,6.40
2022-11-12T20:40:33.433Z,6.40
2022-11-12T20:42:59.884Z,6.39
2022-11-12T20:45:27.068Z,6.37
2022-11-12T20:47:56.198Z,6.36
2022-11-12T20:50:23.308Z,6.34
2022-11-12T20:52:49.920Z,6.33
2022-11-12T20:55:16.585Z,6.29
2022-11-12T20:57:43.039Z,6.26
2022-11-12T21:00:13.769Z,6.25
2022-11-12T21:02:41.308Z,6.23
2022-11-12T21:05:07.943Z,6.20
2022-11-12T21:07:34.411Z,6.18
2022-11-12T21:10:00.983Z,6.11
2022-11-12T21:12:27.469Z,6.11
2022-11-12T21:14:53.956Z,6.11
2022-11-12T21:17:20.510Z,6.10
2022-11-12T21:19:46.923Z,6.07
2022-11-12T21:22:15.517Z,6.05
2022-11-12T21:24:42.119Z,6.02
2022-11-12T21:27:08.803Z,5.98
2022-11-12T21:29:35.307Z,5.96
2022-11-12T21:32:01.810Z,5.97
2022-11-12T21:34:28.937Z,5.96
2022-11-12T21:36:55.898Z,5.96
2022-11-12T21:39:22.476Z,5.95
2022-11-12T21:41:48.950Z,5.89
2022-11-12T21:44:15.480Z,5.92
2022-11-12T21:46:41.882Z,5.89
2022-11-12T21:49:08.577Z,5.89
2022-11-12T21:51:35.046Z,5.86
2022-11-12T21:54:07.162Z,5.83
2022-11-12T21:56:34.515Z,5.79
2022-11-12T21:59:01.592Z,5.77
2022-11-12T22:01:31.338Z,5.76
2022-11-12T22:03:59.777Z,5.78
2022-11-12T22:06:29.185Z,5.79
2022-11-12T22:08:56.958Z,5.76
2022-11-12T22:11:23.606Z,5.75
2022-11-12T22:13:50.471Z,5.74
2022-11-12T22:16:22.559Z,5.71
2022-11-12T22:18:51.759Z,5.68
2022-11-12T22:21:20.846Z,5.65
2022-11-12T22:23:47.555Z,5.63
2022-11-12T22:26:18.518Z,5.61
2022-11-12T22:28:44.948Z,5.62
2022-11-12T22:31:15.079Z,5.63
2022-11-12T22:33:41.620Z,5.62
2022-11-12T22:36:10.848Z,5.62
2022-11-12T22:38:40.252Z,5.62
2022-11-12T22:41:12.547Z,5.61
2022-11-12T22:43:39.491Z,5.60
2022-11-12T22:46:14.237Z,5.57
2022-11-12T22:48:40.594Z,5.54
2022-11-12T22:51:10.330Z,5.52
2022-11-12T22:53:36.819Z,5.49
2022-11-12T22:56:08.666Z,5.43
2022-11-12T22:58:36.558Z,5.40
2022-11-12T23:01:04.309Z,5.41
2022-11-12T23:03:34.865Z,5.43
2022-11-12T23:06:04.771Z,5.45
2022-11-12T23:08:31.851Z,5.45
2022-11-12T23:11:06.134Z,5.46
2022-11-12T23:13:33.077Z,5.47
2022-11-12T23:15:59.585Z,5.49
2022-11-12T23:18:26.462Z,5.47
2022-11-12T23:20:53.216Z,5.48
2022-11-12T23:23:19.697Z,5.47
2022-11-12T23:25:46.335Z,5.45
2022-11-12T23:28:12.889Z,5.43
2022-11-12T23:30:39.355Z,5.41
2022-11-12T23:33:05.772Z,5.37
2022-11-12T23:35:32.163Z,5.32
2022-11-12T23:37:58.600Z,5.32
2022-11-12T23:40:29.773Z,5.30
2022-11-12T23:42:57.441Z,5.25
2022-11-12T23:45:23.872Z,5.23
2022-11-12T23:47:50.363Z,5.21
2022-11-12T23:50:16.880Z,5.17
2022-11-12T23:52:43.302Z,5.16
2022-11-12T23:55:09.788Z,5.12
2022-11-12T23:57:36.336Z,5.11
